createdAt,value
2018-09-05T00:00:52.156Z,42.73
2018-09-05T00:03:19.942Z,42.37
2018-09-05T00:05:47.648Z,43.40
2018-09-05T00:08:15.417Z,41.80
2018-09-05T00:10:43.142Z,51.47
2018-09-05T00:13:10.884Z,46.53
2018-09-05T00:15:38.648Z,47.77
2018-09-05T00:18:06.368Z,43.07
2018-09-05T00:20:34.105Z,49.03
2018-09-05T00:23:01.826Z,41.93
2018-09-05T00:25:29.586Z,46.50
2018-09-05T00:27:57.284Z,45.80
2018-09-05T00:30:25.012Z,40.43
2018-09-05T00:32:52.873Z,47.33
2018-09-05T00:35:20.636Z,43.60
2018-09-05T00:37:48.342Z,49.07
2018-09-05T00:40:16.032Z,44.97
2018-09-05T00:42:43.833Z,45.63
2018-09-05T00:45:11.545Z,44.23
2018-09-05T00:47:39.244Z,46.50
2018-09-05T00:50:06.967Z,39.73
2018-09-05T00:52:34.823Z,44.87
2018-09-05T00:55:02.708Z,49.70
2018-09-05T00:57:30.416Z,46.63
2018-09-05T00:59:58.141Z,45.43
2018-09-05T01:02:25.888Z,38.90
2018-09-05T01:04:53.585Z,40.50
2018-09-05T01:07:27.386Z,39.37
2018-09-05T01:09:55.123Z,45.63
2018-09-05T01:12:23.656Z,49.70
2018-09-05T01:14:52.469Z,40.60
2018-09-05T01:17:20.606Z,49.50
2018-09-05T01:19:48.436Z,43.37
2018-09-05T01:22:16.136Z,40.97
2018-09-05T01:24:43.890Z,40.30
2018-09-05T01:27:11.769Z,39.30
2018-09-05T01:29:40.476Z,47.07
2018-09-05T01:32:09.507Z,43.60
2018-09-05T01:34:37.917Z,41.70
2018-09-05T01:37:05.659Z,36.03
2018-09-05T01:39:33.356Z,40.97
2018-09-05T01:42:01.107Z,40.53
2018-09-05T01:44:28.846Z,40.07
2018-09-05T01:46:56.775Z,43.40
2018-09-05T01:49:24.632Z,39.60
2018-09-05T01:51:55.424Z,40.70
2018-09-05T01:54:23.174Z,41.77
2018-09-05T01:56:51.400Z,40.40
2018-09-05T01:59:19.153Z,41.53
2018-09-05T02:01:47.357Z,36.50
2018-09-05T02:04:15.088Z,42.33
2018-09-05T02:06:42.840Z,33.33
2018-09-05T02:09:12.177Z,42.33
2018-09-05T02:11:39.953Z,43.37
2018-09-05T02:14:07.661Z,42.17
2018-09-05T02:16:35.511Z,37.17
2018-09-05T02:19:03.312Z,39.87
2018-09-05T02:21:31.036Z,42.23
2018-09-05T02:23:58.765Z,42.90
2018-09-05T02:26:26.472Z,46.33
2018-09-05T02:28:54.190Z,42.23
2018-09-05T02:31:21.937Z,40.30
2018-09-05T02:33:49.660Z,42.43
2018-09-05T02:36:17.415Z,43.20
2018-09-05T02:38:45.360Z,47.23
2018-09-05T02:41:13.072Z,41.17
2018-09-05T02:43:46.420Z,46.00
2018-09-05T02:46:14.145Z,43.70
2018-09-05T02:48:41.909Z,41.67
2018-09-05T02:51:09.645Z,39.80
2018-09-05T02:53:37.454Z,46.33
2018-09-05T02:56:05.284Z,50.53
2018-09-05T02:58:34.155Z,39.07
2018-09-05T03:01:01.873Z,44.47
2018-09-05T03:03:29.620Z,42.70
2018-09-05T03:05:57.659Z,47.27
2018-09-05T03:08:25.452Z,47.33
2018-09-05T03:10:53.293Z,41.20
2018-09-05T03:13:21.528Z,44.50
2018-09-05T03:15:49.400Z,38.70
2018-09-05T03:18:17.127Z,43.43
2018-09-05T03:20:44.848Z,38.97
2018-09-05T03:23:12.693Z,37.10
2018-09-05T03:25:40.484Z,39.37
2018-09-05T03:28:08.914Z,39.03
2018-09-05T03:30:37.029Z,39.03
2018-09-05T03:33:04.838Z,43.03
2018-09-05T03:35:32.593Z,42.13
2018-09-05T03:38:00.280Z,39.73
2018-09-05T03:40:28.016Z,42.83
2018-09-05T03:42:55.751Z,36.53
2018-09-05T03:45:23.488Z,38.93
2018-09-05T03:47:51.223Z,40.67
2018-09-05T03:50:18.988Z,41.40
2018-09-05T03:52:46.696Z,40.27
2018-09-05T03:55:14.434Z,45.40
2018-09-05T03:57:42.159Z,44.60
2018-09-05T04:00:09.909Z,44.27
2018-09-05T04:02:37.711Z,41.90
2018-09-05T04:05:05.524Z,40.87
2018-09-05T04:07:33.378Z,37.57
2018-09-05T04:10:01.084Z,35.07
2018-09-05T04:12:28.806Z,33.07
2018-09-05T04:14:56.546Z,33.87
2018-09-05T04:17:24.288Z,36.50
2018-09-05T04:19:52.246Z,30.00
2018-09-05T04:22:19.969Z,33.47
2018-09-05T04:24:47.698Z,31.20
2018-09-05T04:27:15.436Z,28.67
2018-09-05T04:29:43.183Z,30.97
2018-09-05T04:32:10.901Z,28.93
2018-09-05T04:34:38.628Z,26.07
2018-09-05T04:37:06.362Z,31.70
2018-09-05T04:39:34.608Z,27.80
2018-09-05T04:42:02.368Z,27.90
2018-09-05T04:44:30.101Z,34.93
2018-09-05T04:46:57.846Z,33.33
2018-09-05T04:49:25.576Z,27.87
2018-09-05T04:51:53.304Z,30.87
2018-09-05T04:54:21.035Z,31.13
2018-09-05T04:56:48.778Z,30.30
2018-09-05T04:59:16.556Z,26.20
2018-09-05T05:01:44.316Z,29.77
2018-09-05T05:04:12.014Z,27.13
2018-09-05T05:06:39.733Z,28.57
2018-09-05T05:09:09.289Z,27.70
2018-09-05T05:11:37.284Z,26.40
2018-09-05T05:14:05.050Z,28.10
2018-09-05T05:16:32.773Z,25.60
2018-09-05T05:19:00.520Z,23.80
2018-09-05T05:21:28.240Z,27.63
2018-09-05T05:23:55.963Z,24.90
2018-09-05T05:26:23.670Z,28.13
2018-09-05T05:28:51.456Z,25.70
2018-09-05T05:31:19.208Z,25.03
2018-09-05T05:33:46.939Z,29.70
2018-09-05T05:36:15.281Z,28.27
2018-09-05T05:38:43.033Z,25.30
2018-09-05T05:41:10.768Z,31.63
2018-09-05T05:43:38.597Z,27.97
2018-09-05T05:46:06.556Z,29.20
2018-09-05T05:48:34.298Z,26.83
2018-09-05T05:51:02.006Z,33.40
2018-09-05T05:53:29.704Z,28.60
2018-09-05T05:55:57.485Z,23.70
2018-09-05T05:58:25.184Z,26.00
2018-09-05T06:00:52.992Z,26.10
2018-09-05T06:03:20.660Z,25.10
2018-09-05T06:05:48.417Z,25.57
2018-09-05T06:08:16.148Z,28.57
2018-09-05T06:10:43.864Z,24.30
2018-09-05T06:13:11.578Z,25.43
2018-09-05T06:15:39.340Z,28.50
2018-09-05T06:18:07.104Z,29.30
2018-09-05T06:20:35.162Z,32.97
2018-09-05T06:23:02.884Z,30.63
2018-09-05T06:25:30.652Z,29.53
2018-09-05T06:27:58.553Z,33.00
2018-09-05T06:30:26.318Z,29.93
2018-09-05T06:32:54.093Z,27.63
2018-09-05T06:35:21.798Z,32.13
2018-09-05T06:37:49.548Z,30.90
2018-09-05T06:40:17.265Z,27.00
2018-09-05T06:42:45.054Z,31.53
2018-09-05T06:45:12.811Z,38.53
2018-09-05T06:47:40.541Z,35.57
2018-09-05T06:50:08.285Z,30.67
2018-09-05T06:52:36.134Z,30.87
2018-09-05T06:55:03.893Z,28.50
2018-09-05T06:57:31.684Z,26.20
2018-09-05T06:59:59.512Z,36.40
2018-09-05T07:02:27.931Z,33.80
2018-09-05T07:04:55.998Z,28.70
2018-09-05T07:07:23.849Z,32.33
2018-09-05T07:09:51.595Z,30.50
2018-09-05T07:12:19.312Z,32.93
2018-09-05T07:14:47.156Z,34.50
2018-09-05T07:17:14.861Z,28.40
2018-09-05T07:19:42.609Z,36.00
2018-09-05T07:22:10.388Z,30.70
2018-09-05T07:24:38.113Z,33.97
2018-09-05T07:27:05.945Z,39.67
2018-09-05T07:29:33.670Z,32.33
2018-09-05T07:32:01.464Z,41.63
2018-09-05T07:34:29.208Z,39.10
2018-09-05T07:36:56.980Z,32.10
2018-09-05T07:39:24.733Z,37.80
2018-09-05T07:41:52.486Z,40.83
2018-09-05T07:44:20.196Z,32.03
2018-09-05T07:46:47.936Z,35.30
2018-09-05T07:49:15.635Z,34.20
2018-09-05T07:51:43.364Z,37.37
2018-09-05T07:54:11.097Z,41.37
2018-09-05T07:56:38.841Z,41.50
2018-09-05T07:59:06.660Z,38.93
2018-09-05T08:01:34.466Z,37.17
2018-09-05T08:04:02.247Z,39.23
2018-09-05T08:06:29.976Z,37.50
2018-09-05T08:08:57.726Z,38.90
2018-09-05T08:11:25.466Z,36.30
2018-09-05T08:13:53.189Z,38.47
2018-09-05T08:16:20.996Z,37.47
2018-09-05T08:18:48.720Z,38.20
2018-09-05T08:21:16.833Z,38.73
2018-09-05T08:23:44.702Z,41.20
2018-09-05T08:26:12.451Z,37.40
2018-09-05T08:28:40.191Z,37.80
2018-09-05T08:31:07.902Z,31.33
2018-09-05T08:33:35.627Z,32.60
2018-09-05T08:36:03.686Z,33.03
2018-09-05T08:38:31.134Z,33.20
2018-09-05T08:41:03.369Z,36.47
2018-09-05T08:43:31.603Z,41.23
2018-09-05T08:45:59.348Z,30.73
2018-09-05T08:48:27.188Z,35.63
2018-09-05T08:50:54.744Z,33.13
2018-09-05T08:53:22.505Z,32.37
2018-09-05T08:55:50.249Z,32.20
2018-09-05T08:58:17.939Z,32.23
2018-09-05T09:00:45.638Z,31.70
2018-09-05T09:03:13.415Z,35.43
2018-09-05T09:05:42.099Z,33.30
2018-09-05T09:08:09.859Z,32.40
2018-09-05T09:10:37.588Z,43.63
2018-09-05T09:13:05.337Z,34.20
2018-09-05T09:15:33.412Z,41.63
2018-09-05T09:18:01.176Z,30.97
2018-09-05T09:20:28.895Z,34.87
2018-09-05T09:22:56.609Z,31.67
2018-09-05T09:25:24.424Z,36.37
2018-09-05T09:27:52.212Z,29.13
2018-09-05T09:30:20.010Z,38.50
2018-09-05T09:32:47.752Z,31.90
2018-09-05T09:35:15.497Z,33.90
2018-09-05T09:37:43.328Z,29.00
2018-09-05T09:40:11.270Z,34.30
2018-09-05T09:42:39.065Z,26.17
2018-09-05T09:45:06.873Z,27.57
2018-09-05T09:47:34.593Z,32.67
2018-09-05T09:50:02.641Z,27.37
2018-09-05T09:52:30.449Z,29.27
2018-09-05T09:54:58.236Z,29.83
2018-09-05T09:57:26.049Z,30.23
2018-09-05T09:59:53.763Z,27.63
2018-09-05T10:02:27.088Z,26.40
2018-09-05T10:05:00.480Z,33.10
2018-09-05T10:07:33.996Z,27.10
2018-09-05T10:10:08.252Z,30.73
2018-09-05T10:12:41.421Z,33.20
2018-09-05T10:15:12.924Z,31.50
2018-09-05T10:17:40.957Z,30.87
2018-09-05T10:20:08.724Z,28.90
2018-09-05T10:22:36.527Z,22.73
2018-09-05T10:25:04.355Z,30.47
2018-09-05T10:27:32.067Z,25.70
2018-09-05T10:30:00.360Z,26.63
2018-09-05T10:32:28.436Z,26.30
2018-09-05T10:34:56.586Z,31.00
2018-09-05T10:37:24.606Z,24.00
2018-09-05T10:39:52.535Z,26.30
2018-09-05T10:42:20.246Z,24.90
2018-09-05T10:44:47.986Z,26.90
2018-09-05T10:47:15.738Z,23.70
2018-09-05T10:49:43.473Z,22.63
2018-09-05T10:52:11.252Z,24.80
2018-09-05T10:54:39.013Z,22.67
2018-09-05T10:57:06.823Z,23.33
2018-09-05T10:59:34.578Z,22.80
2018-09-05T11:02:02.480Z,21.50
2018-09-05T11:04:30.212Z,27.57
2018-09-05T11:06:58.665Z,25.83
2018-09-05T11:09:26.386Z,30.17
2018-09-05T11:11:54.182Z,24.43
2018-09-05T11:15:00.144Z,23.27
2018-09-05T11:17:28.049Z,24.30
2018-09-05T11:19:55.808Z,30.83
2018-09-05T11:22:23.629Z,23.60
2018-09-05T11:24:51.377Z,23.83
2018-09-05T11:27:19.179Z,21.27
2018-09-05T11:29:46.903Z,21.90
2018-09-05T11:32:14.639Z,21.40
2018-09-05T11:34:42.361Z,23.30
2018-09-05T11:37:10.099Z,16.90
2018-09-05T11:39:37.817Z,17.50
2018-09-05T11:42:10.677Z,20.77
2018-09-05T11:44:38.430Z,20.33
2018-09-05T11:47:06.176Z,20.10
2018-09-05T11:49:33.920Z,18.67
2018-09-05T11:52:01.625Z,15.73
2018-09-05T11:54:29.374Z,15.93
2018-09-05T11:56:57.128Z,16.50
2018-09-05T11:59:24.878Z,14.57
2018-09-05T12:01:52.648Z,14.40
2018-09-05T12:04:20.357Z,14.87
2018-09-05T12:06:48.116Z,15.83
2018-09-05T12:09:15.878Z,16.33
2018-09-05T12:11:43.606Z,17.80
2018-09-05T12:14:11.491Z,15.57
2018-09-05T12:16:39.303Z,16.10
2018-09-05T12:19:07.548Z,14.10
2018-09-05T12:21:35.278Z,12.67
2018-09-05T12:24:03.279Z,14.60
2018-09-05T12:26:31.061Z,15.20
2018-09-05T12:28:58.829Z,17.27
2018-09-05T12:31:26.625Z,14.63
2018-09-05T12:33:54.403Z,15.47
2018-09-05T12:36:22.132Z,14.37
2018-09-05T12:38:49.882Z,16.70
2018-09-05T12:41:17.722Z,18.13
2018-09-05T12:43:45.460Z,15.23
2018-09-05T12:46:13.330Z,15.30
2018-09-05T12:48:41.094Z,12.50
2018-09-05T12:51:09.025Z,13.90
2018-09-05T12:53:36.731Z,13.97
2018-09-05T12:56:04.473Z,15.73
2018-09-05T12:58:32.216Z,13.07
2018-09-05T13:01:00.021Z,16.53
2018-09-05T13:03:27.895Z,15.27
2018-09-05T13:05:55.605Z,13.63
2018-09-05T13:08:23.331Z,13.27
2018-09-05T13:10:51.165Z,14.40
2018-09-05T13:13:18.947Z,14.27
2018-09-05T13:15:46.706Z,13.37
2018-09-05T13:18:14.464Z,16.93
2018-09-05T13:20:42.180Z,13.83
2018-09-05T13:23:09.930Z,15.47
2018-09-05T13:25:37.675Z,15.00
2018-09-05T13:28:05.472Z,13.63
2018-09-05T13:30:33.187Z,13.70
2018-09-05T13:33:01.009Z,15.37
2018-09-05T13:35:28.892Z,15.93
2018-09-05T13:38:39.496Z,12.70
2018-09-05T13:41:07.248Z,13.67
2018-09-05T13:43:35.016Z,14.27
2018-09-05T13:46:02.756Z,15.27
2018-09-05T13:48:30.519Z,11.90
2018-09-05T13:50:58.528Z,10.87
2018-09-05T13:53:26.286Z,11.40
2018-09-05T13:55:54.020Z,13.60
2018-09-05T13:58:21.749Z,12.10
2018-09-05T14:00:49.780Z,11.70
2018-09-05T14:03:17.867Z,13.10
2018-09-05T14:05:45.652Z,13.73
2018-09-05T14:08:13.516Z,11.73
2018-09-05T14:10:41.848Z,15.13
2018-09-05T14:13:09.677Z,13.50
2018-09-05T14:15:38.527Z,14.27
2018-09-05T14:18:06.316Z,13.17
2018-09-05T14:20:34.104Z,16.83
2018-09-05T14:23:01.933Z,12.20
2018-09-05T14:25:29.697Z,15.20
2018-09-05T14:27:57.446Z,13.00
2018-09-05T14:30:25.228Z,13.07
2018-09-05T14:32:53.008Z,16.83
2018-09-05T14:35:20.749Z,13.53
2018-09-05T14:37:48.550Z,14.87
2018-09-05T14:40:16.348Z,13.30
2018-09-05T14:42:44.400Z,12.63
2018-09-05T14:45:12.345Z,12.17
2018-09-05T14:47:40.075Z,11.20
2018-09-05T14:50:07.982Z,11.40
2018-09-05T14:52:35.769Z,14.57
2018-09-05T14:55:03.580Z,12.60
2018-09-05T14:57:31.348Z,13.70
2018-09-05T14:59:59.210Z,13.80
2018-09-05T15:02:26.951Z,14.00
2018-09-05T15:04:54.771Z,12.73
2018-09-05T15:07:22.638Z,12.40
2018-09-05T15:09:50.737Z,15.30
2018-09-05T15:12:18.588Z,11.23
2018-09-05T15:14:46.377Z,15.80
2018-09-05T15:17:14.178Z,11.33
2018-09-05T15:19:41.921Z,12.00
2018-09-05T15:22:09.699Z,12.43
2018-09-05T15:24:37.541Z,12.17
2018-09-05T15:27:05.428Z,12.10
2018-09-05T15:29:33.858Z,13.83
2018-09-05T15:32:01.907Z,10.80
2018-09-05T15:34:29.668Z,13.10
2018-09-05T15:36:57.432Z,11.00
2018-09-05T15:39:25.152Z,11.70
2018-09-05T15:41:52.956Z,9.97
2018-09-05T15:44:20.766Z,10.90
2018-09-05T15:46:48.500Z,10.33
2018-09-05T15:49:16.373Z,10.40
2018-09-05T15:51:44.129Z,11.97
2018-09-05T15:54:11.906Z,10.23
2018-09-05T15:56:39.605Z,9.83
2018-09-05T15:59:07.355Z,11.20
2018-09-05T16:01:35.125Z,12.33
2018-09-05T16:04:02.868Z,13.10
2018-09-05T16:06:30.597Z,10.37
2018-09-05T16:08:58.364Z,10.70
2018-09-05T16:11:26.185Z,11.50
2018-09-05T16:13:53.948Z,15.13
2018-09-05T16:16:21.723Z,12.20
2018-09-05T16:18:49.588Z,9.70
2018-09-05T16:21:17.344Z,11.03
2018-09-05T16:23:45.173Z,12.23
2018-09-05T16:26:12.942Z,11.63
2018-09-05T16:28:40.716Z,12.23
2018-09-05T16:31:08.472Z,12.77
2018-09-05T16:33:36.284Z,10.30
2018-09-05T16:36:04.167Z,11.07
2018-09-05T16:38:31.946Z,10.20
2018-09-05T16:40:59.754Z,10.07
2018-09-05T16:43:27.492Z,10.80
2018-09-05T16:45:55.308Z,11.50
2018-09-05T16:48:23.061Z,12.20
2018-09-05T16:50:50.808Z,16.73
2018-09-05T16:53:18.569Z,12.23
2018-09-05T16:55:46.325Z,12.83
2018-09-05T16:58:14.085Z,14.37
2018-09-05T17:00:41.844Z,12.20
2018-09-05T17:03:09.565Z,13.47
2018-09-05T17:05:37.286Z,18.50
2018-09-05T17:08:05.119Z,15.67
2018-09-05T17:10:32.866Z,12.67
2018-09-05T17:13:00.764Z,12.20
2018-09-05T17:15:28.525Z,12.70
2018-09-05T17:17:56.289Z,11.63
2018-09-05T17:20:24.013Z,10.27
2018-09-05T17:22:51.782Z,13.00
2018-09-05T17:25:19.513Z,14.90
2018-09-05T17:27:47.349Z,15.93
2018-09-05T17:30:15.112Z,13.43
2018-09-05T17:32:42.921Z,12.47
2018-09-05T17:35:10.681Z,11.80
2018-09-05T17:37:38.477Z,12.80
2018-09-05T17:40:06.317Z,15.40
2018-09-05T17:42:34.069Z,15.27
2018-09-05T17:45:01.895Z,14.50
2018-09-05T17:47:29.662Z,13.70
2018-09-05T17:49:57.412Z,17.13
2018-09-05T17:52:25.120Z,10.40
2018-09-05T17:54:52.882Z,17.00
2018-09-05T17:57:20.629Z,17.33
2018-09-05T17:59:48.369Z,15.37
2018-09-05T18:02:16.121Z,21.37
2018-09-05T18:04:43.961Z,14.20
2018-09-05T18:07:11.718Z,15.07
2018-09-05T18:09:39.486Z,11.47
2018-09-05T18:12:07.251Z,16.47
2018-09-05T18:14:35.107Z,15.27
2018-09-05T18:17:02.918Z,11.47
2018-09-05T18:19:30.695Z,11.83
2018-09-05T18:21:58.440Z,11.87
2018-09-05T18:24:26.237Z,13.47
2018-09-05T18:26:53.982Z,12.27
2018-09-05T18:29:21.764Z,12.83
2018-09-05T18:31:49.540Z,12.00
2018-09-05T18:34:17.783Z,13.43
2018-09-05T18:36:45.554Z,17.73
2018-09-05T18:39:13.293Z,13.33
2018-09-05T18:41:41.094Z,16.30
2018-09-05T18:44:08.832Z,13.30
2018-09-05T18:46:36.573Z,15.93
2018-09-05T18:49:04.366Z,16.10
2018-09-05T18:51:32.444Z,14.50
2018-09-05T18:54:00.242Z,15.07
2018-09-05T18:56:28.059Z,16.27
2018-09-05T18:58:55.916Z,21.60
2018-09-05T19:01:23.697Z,18.37
2018-09-05T19:03:51.603Z,19.17
2018-09-05T19:06:19.329Z,15.97
2018-09-05T19:08:47.109Z,20.10
2018-09-05T19:11:14.853Z,21.17
2018-09-05T19:13:42.621Z,23.30
2018-09-05T19:16:10.385Z,19.00
2018-09-05T19:18:38.180Z,16.77
2018-09-05T19:21:05.949Z,19.07
2018-09-05T19:23:34.043Z,17.70
2018-09-05T19:26:01.823Z,16.17
2018-09-05T19:28:29.576Z,18.60
2018-09-05T19:30:57.356Z,20.43
2018-09-05T19:33:25.107Z,18.07
2018-09-05T19:35:52.911Z,16.80
2018-09-05T19:38:20.722Z,16.40
2018-09-05T19:40:48.472Z,15.33
2018-09-05T19:43:16.252Z,19.13
2018-09-05T19:45:43.984Z,20.10
2018-09-05T19:48:11.770Z,20.53
2018-09-05T19:50:39.537Z,20.93
2018-09-05T19:53:07.333Z,21.40
2018-09-05T19:55:35.117Z,21.30
2018-09-05T19:58:02.957Z,29.20
2018-09-05T20:00:30.691Z,24.13
2018-09-05T20:02:58.592Z,21.90
2018-09-05T20:05:26.356Z,25.07
2018-09-05T20:07:54.135Z,22.20
2018-09-05T20:10:22.680Z,20.27
2018-09-05T20:12:50.396Z,29.73
2018-09-05T20:15:18.171Z,21.60
2018-09-05T20:17:45.928Z,23.30
2018-09-05T20:20:13.820Z,21.40
2018-09-05T20:22:41.584Z,23.67
2018-09-05T20:25:09.379Z,27.00
2018-09-05T20:27:37.112Z,20.00
2018-09-05T20:30:04.948Z,19.37
2018-09-05T20:32:32.714Z,24.83
2018-09-05T20:35:00.525Z,22.70
2018-09-05T20:37:28.314Z,27.77
2018-09-05T20:39:56.084Z,25.27
2018-09-05T20:42:23.839Z,29.77
2018-09-05T20:44:51.601Z,23.70
2018-09-05T20:47:19.372Z,24.07
2018-09-05T20:49:47.137Z,23.07
2018-09-05T20:52:14.902Z,21.80
2018-09-05T20:54:42.646Z,26.30
2018-09-05T20:57:10.374Z,21.00
2018-09-05T20:59:38.093Z,25.77
2018-09-05T21:02:05.897Z,23.40
2018-09-05T21:04:33.636Z,24.13
2018-09-05T21:07:01.437Z,26.43
2018-09-05T21:09:29.178Z,24.53
2018-09-05T21:11:56.941Z,24.60
2018-09-05T21:14:24.711Z,25.37
2018-09-05T21:16:52.460Z,24.93
2018-09-05T21:19:20.188Z,27.17
2018-09-05T21:21:47.969Z,28.13
2018-09-05T21:24:15.727Z,26.23
2018-09-05T21:26:43.495Z,28.30
2018-09-05T21:29:11.210Z,31.13
2018-09-05T21:31:38.953Z,35.30
2018-09-05T21:34:06.701Z,31.87
2018-09-05T21:36:34.441Z,35.53
2018-09-05T21:39:02.310Z,33.60
2018-09-05T21:41:30.049Z,30.70
2018-09-05T21:43:57.901Z,38.33
2018-09-05T21:46:25.619Z,26.47
2018-09-05T21:48:53.875Z,30.17
2018-09-05T21:51:21.612Z,32.23
2018-09-05T21:53:49.377Z,28.40
2018-09-05T21:56:17.080Z,28.50
2018-09-05T21:58:44.972Z,33.50
2018-09-05T22:01:12.701Z,30.30
2018-09-05T22:03:40.456Z,32.67
2018-09-05T22:06:08.258Z,28.77
2018-09-05T22:08:36.039Z,35.13
2018-09-05T22:11:09.437Z,32.10
2018-09-05T22:13:37.289Z,34.63
2018-09-05T22:16:05.063Z,35.83
2018-09-05T22:18:32.853Z,34.57
2018-09-05T22:21:01.076Z,36.93
2018-09-05T22:23:28.817Z,34.90
2018-09-05T22:25:56.568Z,37.40
2018-09-05T22:28:24.312Z,31.93
2018-09-05T22:30:52.065Z,34.77
2018-09-05T22:33:19.796Z,33.43
2018-09-05T22:35:47.564Z,34.10
2018-09-05T22:38:15.272Z,30.70
2018-09-05T22:40:48.769Z,32.40
2018-09-05T22:43:27.662Z,32.87
2018-09-05T22:46:06.740Z,34.83
2018-09-05T22:48:51.664Z,34.30
2018-09-05T22:52:11.493Z,32.73
2018-09-05T22:56:30.857Z,35.97
2018-09-05T22:59:08.513Z,37.30
2018-09-05T23:04:52.306Z,37.17
2018-09-05T23:08:03.838Z,38.87
2018-09-05T23:10:42.729Z,41.60
2018-09-05T23:13:21.835Z,36.30
2018-09-05T23:16:00.853Z,38.73
2018-09-05T23:18:39.846Z,35.83
2018-09-05T23:21:23.972Z,37.33
2018-09-05T23:29:33.541Z,34.93
2018-09-05T23:54:53.966Z,38.27
2018-09-05T23:57:21.686Z,34.40
2018-09-05T23:59:49.401Z,36.07
